Ester, AK (99725)

7:10 PM AKDT on August 28, 2016 (GMT -0800)
HADS | | Change Station

Elev 2230 ft 65.18 °N, 148.07 °W | Updated 1 hour ago

Partly Cloudy
Partly Cloudy
64.0 °F
Feels Like 64.0 °F
N
4.0
Wind Variable Wind from ENE
Gusts 12.0 mph

Today
High -- | Low -- °F
--% Chance of Precip.
Yesterday
High -- | Low -- °F
Precip. -- in
Pressure 30.19 in
Visibility 10.0 miles
Clouds Few 6500 ft
Dew Point 31.0 °F
Humidity 29%
Rainfall in
Snow Depth Not available.
6:22 AM 9:23 PM
Waning Crescent, 11% visible
METAR PAFA 290253Z 04009KT 10SM FEW065 20/05 A3018 RMK AO2 SLP223 T02000050 55000
Pressure 30.19 in
Visibility 10.0 miles
Clouds Few 6500 ft
Dew Point 31.0 °F
Humidity 29%
Rainfall in
Snow Depth Not available.
6:22 AM 9:23 PM
Waning Crescent, 11% visible
METAR PAFA 290253Z 04009KT 10SM FEW065 20/05 A3018 RMK AO2 SLP223 T02000050 55000

10-Day Weather Forecast

Almanac

Astronomy

Aug. 28, 2016 Rise Set
Actual Time
Civil Twilight
Nautical Twilight
Astronomical Twilight
Moon
Length of Visible Light
Length of Day
Tomorrow will be .
, % of the Moon is Illuminated

Today's Extremes

State Highs State Lows

Community

WunderPhotos

Upload Photos

1,935,781 photos uploaded!

WunderBlog® & News

Nearby

Air Quality

  Air Quality AQ Index Pollutant
Not available.

Snow Depth

Station Depth Elevation

Earthquake Activity

City Distance Mag. Time & Date
Minimum magnitude displayed is 2.5.

Coastal Water Temperatures

Place Temperature

Stations

Nearby Weather Stations

Station Location Temp. Windchill Dew Point Humidity Wind Precip. Elev Updated Type
                   

Watches & Warnings

There are currently no watches in effect.